createdAt,value
2022-12-23T00:02:49.489Z,97506.53
2022-12-23T00:05:52.557Z,97499.25
2022-12-23T00:08:58.340Z,97508.19
2022-12-23T00:12:20.622Z,97515.03
2022-12-23T00:15:23.175Z,97506.25
2022-12-23T00:18:25.708Z,97505.34
2022-12-23T00:21:28.241Z,97509.91
2022-12-23T00:24:30.862Z,97507.00
2022-12-23T00:27:37.732Z,97504.13
2022-12-23T00:30:46.835Z,97506.63
2022-12-23T00:33:51.749Z,97500.25
2022-12-23T00:36:54.573Z,97498.19
2022-12-23T00:40:14.820Z,97496.97
2022-12-23T00:43:18.983Z,97504.75
2022-12-23T00:46:21.573Z,97518.44
2022-12-23T00:49:41.699Z,97506.72
2022-12-23T00:52:44.211Z,97521.44
2022-12-23T00:55:47.741Z,97521.72
2022-12-23T00:58:51.705Z,97515.81
2022-12-23T01:02:12.085Z,97534.34
2022-12-23T01:05:32.516Z,97526.41
2022-12-23T01:08:35.183Z,97530.38
2022-12-23T01:11:37.769Z,97538.44
2022-12-23T01:14:41.912Z,97545.53
2022-12-23T01:17:44.485Z,97549.63
2022-12-23T01:20:47.035Z,97556.41
2022-12-23T01:23:49.566Z,97555.97
2022-12-23T01:26:52.104Z,97552.25
2022-12-23T01:29:56.372Z,97566.09
2022-12-23T01:32:59.161Z,97577.22
2022-12-23T01:36:02.888Z,97572.81
2022-12-23T01:39:05.495Z,97568.94
2022-12-23T01:42:29.874Z,97575.72
2022-12-23T01:45:34.808Z,97573.94
2022-12-23T01:48:37.700Z,97581.59
2022-12-23T01:51:40.298Z,97583.81
2022-12-23T01:54:43.376Z,97587.50
2022-12-23T01:57:46.209Z,97588.00
2022-12-23T02:01:07.639Z,97592.69
2022-12-23T02:04:12.773Z,97601.03
2022-12-23T02:07:32.824Z,97601.28
2022-12-23T02:10:59.043Z,97610.69
2022-12-23T02:14:45.549Z,97620.59
2022-12-23T02:17:59.276Z,97626.75
2022-12-23T02:21:12.114Z,97626.38
2022-12-23T02:24:37.625Z,97630.22
2022-12-23T02:27:54.090Z,97629.75
2022-12-23T02:31:02.366Z,97640.78
2022-12-23T02:34:11.279Z,97649.59
2022-12-23T02:37:21.086Z,97652.25
2022-12-23T02:40:30.545Z,97656.69
2022-12-23T02:43:40.406Z,97654.41
2022-12-23T02:46:47.250Z,97657.97
2022-12-23T02:49:52.849Z,97660.97
2022-12-23T02:52:59.034Z,97674.22
2022-12-23T02:56:03.398Z,97680.19
2022-12-23T02:59:09.408Z,97681.00
2022-12-23T03:02:13.600Z,97693.81
2022-12-23T03:05:27.519Z,97690.69
2022-12-23T03:08:32.938Z,97702.69
2022-12-23T03:11:43.167Z,97695.56
2022-12-23T03:15:04.535Z,97701.03
2022-12-23T03:18:13.229Z,97700.44
2022-12-23T03:21:19.041Z,97701.66
2022-12-23T03:24:25.718Z,97712.06
2022-12-23T03:27:32.402Z,97714.09
2022-12-23T03:30:35.447Z,97715.97
2022-12-23T03:33:42.129Z,97723.47
2022-12-23T03:36:48.000Z,97730.50
2022-12-23T03:39:53.842Z,97730.97
2022-12-23T03:43:00.519Z,97729.47
2022-12-23T03:46:06.460Z,97748.53
2022-12-23T03:49:14.202Z,97731.06
2022-12-23T03:52:21.541Z,97737.69
2022-12-23T03:55:27.325Z,97735.81
2022-12-23T03:58:35.361Z,97719.56
2022-12-23T04:01:42.456Z,97726.97
2022-12-23T04:04:54.419Z,97737.00
2022-12-23T04:08:02.461Z,97740.72
2022-12-23T04:11:05.362Z,97750.16
2022-12-23T04:14:08.336Z,97748.63
2022-12-23T04:17:10.839Z,97747.63
2022-12-23T04:20:15.160Z,97744.91
2022-12-23T04:23:17.699Z,97747.00
2022-12-23T04:26:20.453Z,97751.78
2022-12-23T04:29:22.984Z,97761.00
2022-12-23T04:32:26.689Z,97761.84
2022-12-23T04:35:30.573Z,97756.50
2022-12-23T04:38:33.168Z,97751.16
2022-12-23T04:41:35.734Z,97746.13
2022-12-23T04:44:38.269Z,97767.56
2022-12-23T04:47:41.495Z,97784.06
2022-12-23T04:50:45.381Z,97780.13
2022-12-23T04:53:47.903Z,97768.56
2022-12-23T04:56:50.751Z,97788.53
2022-12-23T04:59:53.289Z,97785.78
2022-12-23T05:02:55.989Z,97806.34
2022-12-23T05:06:00.161Z,97808.72
2022-12-23T05:09:02.806Z,97798.69
2022-12-23T05:12:05.475Z,97798.56
2022-12-23T05:15:09.207Z,97790.81
2022-12-23T05:18:11.872Z,97800.44
2022-12-23T05:21:16.443Z,97810.97
2022-12-23T05:24:19.182Z,97804.88
2022-12-23T05:27:21.828Z,97818.31
2022-12-23T05:30:24.403Z,97816.75
2022-12-23T05:33:27.232Z,97813.72
2022-12-23T05:36:31.154Z,97814.59
2022-12-23T05:39:33.860Z,97809.50
2022-12-23T05:42:36.560Z,97803.75
2022-12-23T05:45:39.281Z,97815.22
2022-12-23T05:48:41.893Z,97822.59
2022-12-23T05:51:45.781Z,97823.25
2022-12-23T05:54:48.412Z,97827.00
2022-12-23T05:57:51.072Z,97827.78
2022-12-23T06:00:54.412Z,97825.84
2022-12-23T06:03:57.305Z,97820.53
2022-12-23T06:07:01.470Z,97830.94
2022-12-23T06:10:05.550Z,97828.41
2022-12-23T06:13:08.196Z,97824.34
2022-12-23T06:16:10.789Z,97833.88
2022-12-23T06:19:13.362Z,97825.19
2022-12-23T06:22:17.724Z,97831.66
2022-12-23T06:25:20.323Z,97829.91
2022-12-23T06:28:22.946Z,97830.06
2022-12-23T06:31:25.576Z,97828.66
2022-12-23T06:34:28.162Z,97833.22
2022-12-23T06:37:32.122Z,97840.41
2022-12-23T06:40:34.739Z,97841.19
2022-12-23T06:43:37.275Z,97848.50
2022-12-23T06:50:09.002Z,97849.22
2022-12-23T06:53:13.257Z,97850.00
2022-12-23T06:56:15.952Z,97850.44
2022-12-23T06:59:18.654Z,97838.94
2022-12-23T07:02:21.794Z,97852.09
2022-12-23T07:05:24.886Z,97866.50
2022-12-23T07:08:28.869Z,97858.03
2022-12-23T07:11:31.619Z,97862.34
2022-12-23T07:14:34.205Z,97862.59
2022-12-23T07:17:36.744Z,97859.06
2022-12-23T07:20:39.400Z,97857.50
2022-12-23T07:23:43.476Z,97864.75
2022-12-23T07:26:46.161Z,97854.88
2022-12-23T07:29:48.734Z,97860.53
2022-12-23T07:32:52.133Z,97865.56
2022-12-23T07:35:58.826Z,97861.69
2022-12-23T07:39:02.841Z,97860.72
2022-12-23T07:45:29.228Z,97873.78
2022-12-23T07:48:31.808Z,97870.81
2022-12-23T07:51:34.294Z,97864.72
2022-12-23T07:54:38.261Z,97858.16
2022-12-23T07:57:40.855Z,97871.59
2022-12-23T08:00:43.558Z,97878.03
2022-12-23T08:03:46.242Z,97890.59
2022-12-23T08:06:49.001Z,97880.59
2022-12-23T08:09:53.132Z,97883.00
2022-12-23T08:12:55.732Z,97889.53
2022-12-23T08:16:00.408Z,97895.66
2022-12-23T08:19:03.013Z,97901.34
2022-12-23T08:22:05.735Z,97909.72
2022-12-23T08:25:10.802Z,97897.03
2022-12-23T08:28:13.468Z,97906.09
2022-12-23T08:31:17.546Z,97910.44
2022-12-23T08:34:20.310Z,97897.72
2022-12-23T08:37:23.077Z,97898.84
2022-12-23T08:40:26.915Z,97900.63
2022-12-23T08:43:35.624Z,97898.16
2022-12-23T08:46:39.172Z,97890.13
2022-12-23T08:49:41.947Z,97883.75
2022-12-23T08:52:44.457Z,97880.00
2022-12-23T08:55:48.524Z,97880.72
2022-12-23T08:58:52.701Z,97878.97
2022-12-23T09:01:55.372Z,97865.19
2022-12-23T09:04:58.084Z,97880.00
2022-12-23T09:08:00.969Z,97881.34
2022-12-23T09:11:05.084Z,97887.44
2022-12-23T09:14:08.505Z,97889.91
2022-12-23T09:17:11.702Z,97895.09
2022-12-23T09:20:14.357Z,97894.38
2022-12-23T09:23:16.929Z,97890.00
2022-12-23T09:26:22.444Z,97887.78
2022-12-23T09:29:25.016Z,97891.03
2022-12-23T09:32:27.619Z,97883.44
2022-12-23T09:35:30.384Z,97883.97
2022-12-23T09:38:33.249Z,97875.47
2022-12-23T09:41:49.383Z,97870.84
2022-12-23T09:45:13.901Z,97872.28
2022-12-23T09:48:19.223Z,97862.31
2022-12-23T09:51:23.387Z,97857.13
2022-12-23T09:54:28.899Z,97856.41
2022-12-23T09:57:36.481Z,97847.78
2022-12-23T10:00:41.639Z,97853.94
2022-12-23T10:04:10.562Z,97850.47
2022-12-23T10:07:23.122Z,97852.63
2022-12-23T10:10:31.927Z,97849.47
2022-12-23T10:13:38.962Z,97840.16
2022-12-23T10:16:44.519Z,97831.41
2022-12-23T10:19:49.117Z,97839.78
2022-12-23T10:22:51.912Z,97844.69
2022-12-23T10:25:54.535Z,97840.28
2022-12-23T10:29:03.208Z,97831.91
2022-12-23T10:32:15.099Z,97821.97
2022-12-23T10:35:27.299Z,97836.13
2022-12-23T10:38:40.201Z,97826.91
2022-12-23T10:41:49.710Z,97827.94
2022-12-23T10:45:23.300Z,97826.59
2022-12-23T10:48:37.312Z,97818.66
2022-12-23T10:51:46.612Z,97814.13
2022-12-23T10:54:49.441Z,97803.00
2022-12-23T10:57:53.570Z,97799.84
2022-12-23T11:01:00.540Z,97793.81
2022-12-23T11:04:07.776Z,97785.28
2022-12-23T11:10:36.456Z,97783.50
2022-12-23T11:13:41.058Z,97781.69
2022-12-23T11:16:47.740Z,97782.22
2022-12-23T11:20:08.362Z,97777.75
2022-12-23T11:23:25.615Z,97763.00
2022-12-23T11:26:28.186Z,97757.25
2022-12-23T11:29:33.295Z,97764.50
2022-12-23T11:32:37.430Z,97754.03
2022-12-23T11:35:40.541Z,97748.91
2022-12-23T11:38:49.449Z,97735.66
2022-12-23T11:41:54.593Z,97718.97
2022-12-23T11:44:59.788Z,97723.22
2022-12-23T11:48:04.439Z,97721.03
2022-12-23T11:51:07.247Z,97722.78
2022-12-23T11:54:16.840Z,97722.00
2022-12-23T11:57:23.394Z,97726.09
2022-12-23T12:00:28.252Z,97713.56
2022-12-23T12:03:35.369Z,97713.00
2022-12-23T12:06:43.997Z,97700.16
2022-12-23T12:09:46.911Z,97684.94
2022-12-23T12:12:54.847Z,97675.66
2022-12-23T12:16:07.153Z,97675.31
2022-12-23T12:19:13.959Z,97658.41
2022-12-23T12:22:31.770Z,97658.69
2022-12-23T12:25:40.013Z,97646.47
2022-12-23T12:28:45.090Z,97641.75
2022-12-23T12:31:49.729Z,97645.72
2022-12-23T12:34:58.217Z,97643.00
2022-12-23T12:38:04.144Z,97638.69
2022-12-23T12:41:12.330Z,97640.34
2022-12-23T12:44:28.127Z,97638.28
2022-12-23T12:47:53.480Z,97627.31
2022-12-23T12:51:03.025Z,97620.00
2022-12-23T12:54:14.068Z,97620.09
2022-12-23T12:57:18.804Z,97609.16
2022-12-23T13:00:23.391Z,97607.13
2022-12-23T13:03:37.657Z,97605.00
2022-12-23T13:06:47.579Z,97598.53
2022-12-23T13:10:00.156Z,97596.06
2022-12-23T13:13:11.308Z,97597.06
2022-12-23T13:16:22.166Z,97582.66
2022-12-23T13:19:28.159Z,97583.88
2022-12-23T13:22:34.487Z,97587.03
2022-12-23T13:25:42.447Z,97587.56
2022-12-23T13:28:51.008Z,97574.88
2022-12-23T13:31:56.983Z,97570.16
2022-12-23T13:35:07.768Z,97572.16
2022-12-23T13:38:23.958Z,97571.66
2022-12-23T13:41:32.438Z,97575.16
2022-12-23T13:44:35.800Z,97578.94
2022-12-23T13:47:46.763Z,97572.81
2022-12-23T13:50:53.105Z,97567.72
2022-12-23T13:54:04.845Z,97566.16
2022-12-23T13:57:15.286Z,97568.50
2022-12-23T14:00:27.249Z,97553.13
2022-12-23T14:03:34.715Z,97544.41
2022-12-23T14:06:45.139Z,97543.63
2022-12-23T14:09:53.478Z,97545.56
2022-12-23T14:13:02.733Z,97550.81
2022-12-23T14:16:26.763Z,97550.75
2022-12-23T14:19:42.343Z,97538.50
2022-12-23T14:22:57.134Z,97544.56
2022-12-23T14:26:10.781Z,97546.59
2022-12-23T14:29:36.721Z,97542.88
2022-12-23T14:32:44.571Z,97539.16
2022-12-23T14:35:55.917Z,97541.28
2022-12-23T14:39:30.634Z,97544.22
2022-12-23T14:42:42.114Z,97538.09
2022-12-23T14:45:45.241Z,97534.16
2022-12-23T14:52:50.304Z,97532.06
2022-12-23T14:56:08.628Z,97541.44
2022-12-23T14:59:17.882Z,97536.81
2022-12-23T15:02:24.067Z,97536.50
2022-12-23T15:05:27.428Z,97541.13
2022-12-23T15:08:32.894Z,97554.63
2022-12-23T15:11:37.062Z,97564.25
2022-12-23T15:14:47.351Z,97562.50
2022-12-23T15:18:03.024Z,97558.66
2022-12-23T15:21:12.488Z,97559.06
2022-12-23T15:24:16.955Z,97560.16
2022-12-23T15:27:29.596Z,97566.81
2022-12-23T15:30:36.360Z,97588.03
2022-12-23T15:37:02.643Z,97584.63
2022-12-23T15:40:12.637Z,97593.94
2022-12-23T15:43:19.705Z,97594.00
2022-12-23T15:46:29.809Z,97584.22
2022-12-23T15:49:33.177Z,97582.38
2022-12-23T15:52:35.913Z,97593.81
2022-12-23T15:55:40.526Z,97598.88
2022-12-23T15:58:43.723Z,97591.50
2022-12-23T16:01:48.017Z,97587.22
2022-12-23T16:04:54.685Z,97586.50
2022-12-23T16:08:11.086Z,97579.59
2022-12-23T16:11:16.196Z,97587.88
2022-12-23T16:14:25.967Z,97582.88
2022-12-23T16:17:34.790Z,97585.13
2022-12-23T16:20:41.857Z,97577.94
2022-12-23T16:23:49.420Z,97579.00
2022-12-23T16:26:51.953Z,97592.72
2022-12-23T16:29:55.327Z,97595.34
2022-12-23T16:33:02.095Z,97581.22
2022-12-23T16:36:20.031Z,97584.38
2022-12-23T16:39:24.006Z,97587.09
2022-12-23T16:42:26.670Z,97597.78
2022-12-23T16:45:29.558Z,97599.75
2022-12-23T16:48:35.829Z,97594.78
2022-12-23T16:51:39.194Z,97593.22
2022-12-23T16:54:42.520Z,97601.78
2022-12-23T16:57:45.847Z,97598.19
2022-12-23T17:00:48.727Z,97590.78
2022-12-23T17:03:53.169Z,97582.34
2022-12-23T17:06:55.830Z,97592.16
2022-12-23T17:09:58.387Z,97585.50
2022-12-23T17:13:00.943Z,97587.09
2022-12-23T17:16:03.579Z,97585.03
2022-12-23T17:19:07.498Z,97595.03
2022-12-23T17:22:13.500Z,97582.09
2022-12-23T17:25:24.501Z,97583.31
2022-12-23T17:28:30.993Z,97578.25
2022-12-23T17:31:34.831Z,97583.59
2022-12-23T17:34:39.103Z,97578.47
2022-12-23T17:37:41.904Z,97579.56
2022-12-23T17:40:46.504Z,97584.25
2022-12-23T17:43:49.094Z,97584.59
2022-12-23T17:46:51.749Z,97593.00
2022-12-23T17:49:55.689Z,97590.56
2022-12-23T17:52:58.315Z,97596.91
2022-12-23T17:56:00.926Z,97602.03
2022-12-23T17:59:03.476Z,97588.75
2022-12-23T18:02:21.955Z,97594.72
2022-12-23T18:05:28.276Z,97587.34
2022-12-23T18:08:30.972Z,97580.94
2022-12-23T18:11:36.770Z,97571.38
2022-12-23T18:14:39.462Z,97560.44
2022-12-23T18:17:42.038Z,97590.81
2022-12-23T18:20:47.896Z,97671.69
2022-12-23T18:23:50.900Z,97720.53
2022-12-23T18:26:53.667Z,97685.69
2022-12-23T18:29:56.328Z,97675.78
2022-12-23T18:32:58.893Z,97668.13
2022-12-23T18:36:02.945Z,97656.97
2022-12-23T18:39:06.087Z,97672.97
2022-12-23T18:42:12.147Z,97668.78
2022-12-23T18:45:33.669Z,97660.28
2022-12-23T18:48:36.811Z,97677.91
2022-12-23T18:51:40.840Z,97683.84
2022-12-23T18:54:43.343Z,97679.47
2022-12-23T18:57:45.979Z,97684.69
2022-12-23T19:00:48.942Z,97674.63
2022-12-23T19:03:51.415Z,97683.28
2022-12-23T19:06:55.624Z,97685.03
2022-12-23T19:09:58.193Z,97706.78
2022-12-23T19:13:01.595Z,97694.84
2022-12-23T19:16:04.525Z,97695.03
2022-12-23T19:19:07.358Z,97701.66
2022-12-23T19:22:11.430Z,97717.03
2022-12-23T19:25:15.883Z,97715.16
2022-12-23T19:28:18.517Z,97724.47
2022-12-23T19:31:23.062Z,97716.88
2022-12-23T19:34:25.899Z,97731.00
2022-12-23T19:37:30.465Z,97739.75
2022-12-23T19:40:33.261Z,97748.06
2022-12-23T19:43:36.423Z,97745.50
2022-12-23T19:46:39.097Z,97752.66
2022-12-23T19:49:41.703Z,97760.16
2022-12-23T19:52:45.653Z,97757.06
2022-12-23T19:55:59.014Z,97768.59
2022-12-23T19:59:01.976Z,97758.66
2022-12-23T20:02:04.588Z,97754.63
2022-12-23T20:05:09.631Z,97765.38
2022-12-23T20:08:13.528Z,97762.09
2022-12-23T20:11:18.701Z,97772.97
2022-12-23T20:14:21.689Z,97771.06
2022-12-23T20:17:24.351Z,97793.13
2022-12-23T20:20:26.986Z,97795.16
2022-12-23T20:23:32.025Z,97799.56
2022-12-23T20:26:35.080Z,97800.34
2022-12-23T20:29:37.639Z,97805.06
2022-12-23T20:32:40.338Z,97803.84
2022-12-23T20:35:42.861Z,97810.28
2022-12-23T20:38:48.408Z,97817.63
2022-12-23T20:41:51.213Z,97834.91
2022-12-23T20:44:54.071Z,97838.03
2022-12-23T20:47:56.669Z,97836.97
2022-12-23T20:51:04.734Z,97852.56
2022-12-23T20:54:09.200Z,97864.25
2022-12-23T20:57:11.765Z,97857.69
2022-12-23T21:00:15.490Z,97879.38
2022-12-23T21:03:18.241Z,97870.47
2022-12-23T21:06:21.310Z,97883.28
2022-12-23T21:09:25.365Z,97876.22
2022-12-23T21:12:27.981Z,97887.88
2022-12-23T21:15:32.527Z,97895.63
2022-12-23T21:18:35.435Z,97905.09
2022-12-23T21:21:38.070Z,97917.28
2022-12-23T21:24:42.084Z,97909.88
2022-12-23T21:27:44.757Z,97907.25
2022-12-23T21:30:47.266Z,97904.97
2022-12-23T21:33:51.409Z,97897.03
2022-12-23T21:36:54.149Z,97883.44
2022-12-23T21:39:58.114Z,97883.75
2022-12-23T21:43:05.343Z,97895.41
2022-12-23T21:46:12.347Z,97916.88
2022-12-23T21:49:15.289Z,97927.34
2022-12-23T21:52:18.002Z,97930.31
2022-12-23T21:55:21.896Z,97938.09
2022-12-23T21:58:24.458Z,97937.66
2022-12-23T22:01:27.870Z,97940.94
2022-12-23T22:04:30.502Z,97937.84
2022-12-23T22:07:33.069Z,97947.56
2022-12-23T22:10:39.292Z,97965.91
2022-12-23T22:13:42.525Z,97952.44
2022-12-23T22:16:45.151Z,97958.13
2022-12-23T22:19:47.699Z,97944.25
2022-12-23T22:22:50.421Z,97952.72
2022-12-23T22:25:55.310Z,97953.44
2022-12-23T22:28:59.173Z,97968.56
2022-12-23T22:32:01.782Z,97977.00
2022-12-23T22:35:04.530Z,97964.78
2022-12-23T22:38:07.024Z,97969.88
2022-12-23T22:41:11.601Z,97966.81
2022-12-23T22:44:15.039Z,97970.59
2022-12-23T22:47:22.231Z,97980.63
2022-12-23T22:50:24.815Z,97995.66
2022-12-23T22:53:29.829Z,97984.84
2022-12-23T22:56:34.171Z,97990.53
2022-12-23T22:59:37.298Z,97983.81
2022-12-23T23:02:39.841Z,97986.00
2022-12-23T23:05:42.561Z,97982.25
2022-12-23T23:08:45.365Z,97983.41
2022-12-23T23:11:49.910Z,97985.69
2022-12-23T23:14:55.685Z,97997.25
2022-12-23T23:17:58.185Z,97984.75
2022-12-23T23:21:00.998Z,97996.38
2022-12-23T23:24:03.820Z,97992.41
2022-12-23T23:27:07.809Z,97998.69
2022-12-23T23:30:11.373Z,97996.88
2022-12-23T23:33:13.727Z,97993.34
2022-12-23T23:36:17.734Z,98002.91
2022-12-23T23:39:20.482Z,97999.88
2022-12-23T23:42:24.368Z,97998.16
2022-12-23T23:45:27.679Z,98018.56
2022-12-23T23:48:30.227Z,98021.50
2022-12-23T23:51:32.825Z,98022.00
2022-12-23T23:54:35.602Z,98034.97
2022-12-23T23:57:39.530Z,98036.47
